Reklama

Seznam meteostanic a jejich METAR

Vyhledat místa podle abecedy:
A B C D E F G H I J K L M N O P Q R S T U V W X Y Z

Filtrovat:

ID stanice:
a/nebo
Název místa (fulltext):
 
Místo (ID)Naposledy načteno 
Brno - Tuřany (Brno/Tu) 17.09.2019 02:00 UTC Zobrazit data
Místo: Brno - Tuřany
Teplota: 16 °C (pocitová: 14.6 °C)
Vítr: 2 m/s z(e) 10°
Počasí: déšť
Dohlednost: 20 km
Zákl. oblačnosti: 7/8 1200 m;8/8 1800 m
Vlhkost: 83%
Červená - Opava (Cervena/uL) 16.09.2019 23:00 UTC Zobrazit data
Místo: Červená - Opava
Teplota: 11 °C (pocitová: 6.7 °C)
Vítr: 4 m/s z(e) 270°
Počasí: zataženo
Dohlednost: 2300 m
Zákl. oblačnosti: 8/8 30 m
Vlhkost: 100%
České Budějovice (C.Budej/po) 17.09.2019 02:00 UTC Zobrazit data
Místo: České Budějovice
Teplota: 16 °C (pocitová: 15.3 °C)
Vítr: 1 m/s z(e) 300°
Počasí: zataženo
Dohlednost: 30 km
Zákl. oblačnosti: 3/8 1800 m;7/8 2400 m
Vlhkost: 83%
Cheb (Cheb) 17.09.2019 02:00 UTC Zobrazit data
Místo: Cheb
Teplota: 11 °C (pocitová: 7.3 °C)
Vítr: 3 m/s z(e) 340°
Počasí: zataženo
Dohlednost: 30 km
Zákl. oblačnosti: 8/8 360 m
Vlhkost: 88%
Chotusice - Čáslav (Caslav) 17.09.2019 02:00 UTC Zobrazit data
Místo: Chotusice - Čáslav
Teplota: 12 °C (pocitová: 8.7 °C)
Vítr: 3 m/s z(e) 310°
Počasí: déšť
Dohlednost: 10 km
Zákl. oblačnosti: 2/8 180 m;7/8 1230 m
Vlhkost: 94%
Churáňov (Churanov) 17.09.2019 02:00 UTC Zobrazit data
Místo: Churáňov
Teplota: 10 °C (pocitová: 4.8 °C)
Vítr: 5 m/s z(e) 250°
Počasí: zataženo
Dohlednost: 25 km
Zákl. oblačnosti: 8/8 1260 m
Vlhkost: 94%
Doksany - Litoměřice (Doksany) 17.09.2019 02:00 UTC Zobrazit data
Místo: Doksany - Litoměřice
Teplota: 10 °C (pocitová: 8 °C)
Vítr: 1 m/s z(e) 310°
Počasí: skoro zataženo
Dohlednost: 35 km
Zákl. oblačnosti: 7/8 1470 m
Vlhkost: 100%
Dukovany (Dukovany) 17.09.2019 02:00 UTC Zobrazit data
Místo: Dukovany
Teplota: 14 °C (pocitová: 12.1 °C)
Vítr: 2 m/s z(e) 280°
Počasí: zataženo
Dohlednost: 15 km
Zákl. oblačnosti: 8/8 2100 m
Vlhkost: 88%
Holešov (Holesov) 17.09.2019 02:00 UTC Zobrazit data
Místo: Holešov
Teplota: 15 °C (pocitová: 14.1 °C)
Vítr: 1 m/s z(e) 290°
Počasí: zataženo
Dohlednost: 11 km
Zákl. oblačnosti: 2/8 600 m;8/8 1110 m
Vlhkost: 94%
Kadaň - Tušimice (Tusimice) 17.09.2019 02:00 UTC Zobrazit data
Místo: Kadaň - Tušimice
Teplota: 11 °C (pocitová: 7.3 °C)
Vítr: 3 m/s z(e) 330°
Počasí: skorojasno
Dohlednost: 35 km
Zákl. oblačnosti: 1/8 1500 m
Vlhkost: 82%
Karlovy Vary (K.Vary) 17.09.2019 02:00 UTC Zobrazit data
Místo: Karlovy Vary
Teplota: 11 °C (pocitová: 8.2 °C)
Vítr: 2 m/s z(e) 280°
Počasí: zataženo
Dohlednost: 30 km
Zákl. oblačnosti: 4/8 360 m;7/8 900 m
Vlhkost: 88%
Kocelovice (Kocelovice) 17.09.2019 02:00 UTC Zobrazit data
Místo: Kocelovice
Teplota: 14 °C (pocitová: 12.1 °C)
Vítr: 2 m/s z(e) 280°
Počasí: zataženo
Dohlednost: 4500 m
Zákl. oblačnosti: 8/8 300 m
Vlhkost: 100%
Kopisty (Kopisty) 16.09.2019 21:00 UTC Zobrazit data
Místo: Kopisty
Teplota: 15 °C (pocitová: 14.1 °C)
Vítr: 1 m/s z(e) 330°
Počasí: zataženo
Dohlednost: 20 km
Zákl. oblačnosti: 8/8 1500 m
Vlhkost: 77%
Kostelní Myslová (K.Myslova) 17.09.2019 02:00 UTC Zobrazit data
Místo: Kostelní Myslová
Teplota: 14 °C (pocitová: 12.9 °C)
Vítr: 1 m/s z(e) 0°
Počasí: zataženo
Dohlednost: 30 km
Zákl. oblačnosti: 2/8 810 m;8/8 2100 m
Vlhkost: 82%
Křešín - Kramolín (Kramolin) 17.09.2019 02:00 UTC Zobrazit data
Místo: Křešín - Kramolín
Teplota: 11 °C (pocitová: 5.8 °C)
Vítr: 6 m/s z(e) 340°
Počasí: zataženo
Dohlednost: 9 km
Zákl. oblačnosti: 7/8 60 m;8/8 630 m
Vlhkost: 94%
Kuchařovice - Znojmo (Kucharovic) 17.09.2019 02:00 UTC Zobrazit data
Místo: Kuchařovice - Znojmo
Teplota: 16 °C (pocitová: 14.6 °C)
Vítr: 2 m/s z(e) 330°
Počasí: zataženo
Dohlednost: 30 km
Zákl. oblačnosti: 8/8 2400 m
Vlhkost: 77%
Liberec (Liberec) 17.09.2019 02:00 UTC Zobrazit data
Místo: Liberec
Teplota: 10 °C (pocitová: 5.3 °C)
Vítr: 4 m/s z(e) 300°
Počasí: zataženo
Dohlednost: 16 km
Zákl. oblačnosti: 8/8 180 m
Vlhkost: 94%
Luká (Luka) 17.09.2019 02:00 UTC Zobrazit data
Místo: Luká
Teplota: 13 °C (pocitová: 8.7 °C)
Vítr: 6 m/s z(e) 300°
Počasí: zataženo
Dohlednost: 24 km
Zákl. oblačnosti: 1/8 180 m;8/8 1260 m
Vlhkost: 88%
Lysá Hora (Lysa Hora) 16.09.2019 21:00 UTC Zobrazit data
Místo: Lysá Hora
Teplota: 8 °C (pocitová: 0.7 °C)
Vítr: 9 m/s z(e) 300°
Počasí: déšť
Dohlednost: 200 m
Zákl. oblačnosti: 7/8 210 m
Vlhkost: 100%
Milešovka (Milesovka) 17.09.2019 02:00 UTC Zobrazit data
Místo: Milešovka
Teplota: 7 °C (pocitová: -1.5 °C)
Vítr: 11 m/s z(e) 320°
Počasí: skorojasno
Dohlednost: 60 km
Zákl. oblačnosti: 1/8 90 m
Vlhkost: 100%
Mošnov (Ostrava/Mo) 17.09.2019 02:00 UTC Zobrazit data
Místo: Mošnov
Teplota: 12 °C (pocitová: 8.7 °C)
Vítr: 3 m/s z(e) 10°
Počasí: déšť
Dohlednost: 9 km
Zákl. oblačnosti: 3/8 210 m;8/8 450 m
Vlhkost: 100%
Náměšť nad Oslavou (Namest n/O) 17.09.2019 02:00 UTC Zobrazit data
Místo: Náměšť nad Oslavou
Teplota: 14 °C (pocitová: 11.3 °C)
Vítr: 3 m/s z(e) 300°
Počasí: zataženo
Dohlednost: 10 km
Zákl. oblačnosti: 4/8 900 m;8/8 2100 m
Vlhkost: 88%
Pardubice (Pardubice) 17.09.2019 02:00 UTC Zobrazit data
Místo: Pardubice
Teplota: 13 °C (pocitová: 9.4 °C)
Vítr: 4 m/s z(e) 290°
Počasí: déšť
Dohlednost: 10 km
Zákl. oblačnosti: 4/8 210 m;8/8 1200 m
Vlhkost: 88%
Pec pod Sněžkou (Pec p.Snez) 17.09.2019 02:00 UTC Zobrazit data
Místo: Pec pod Sněžkou
Teplota: 6 °C (pocitová: 1.8 °C)
Vítr: 2 m/s z(e) 230°
Počasí: skoro zataženo
Dohlednost: 18 km
Zákl. oblačnosti: 7/8 5100 m
Vlhkost: 93%
Plzeň město - Mikulka (Plzen/Miku) 17.09.2019 02:00 UTC Zobrazit data
Místo: Plzeň město - Mikulka
Teplota: 13 °C (pocitová: 10 °C)
Vítr: 3 m/s z(e) 50°
Počasí: zataženo
Dohlednost: 35 km
Zákl. oblačnosti: 7/8 210 m;8/8 420 m
Vlhkost: 94%
Polom (Polom) 17.09.2019 02:00 UTC Zobrazit data
Místo: Polom
Teplota: 8 °C (pocitová: 4.4 °C)
Vítr: 2 m/s z(e) 20°
Počasí: zataženo
Dohlednost: 2000 m
Zákl. oblačnosti: 8/8 60 m
Vlhkost: 100%
Praha - Karlov (Praha/Kar) 17.09.2019 02:00 UTC Zobrazit data
Místo: Praha - Karlov
Teplota: 13 °C (pocitová: 11.7 °C)
Vítr: 1 m/s z(e) 0°
Počasí: zataženo
Dohlednost: 35 km
Zákl. oblačnosti: 3/8 330 m;5/8 900 m
Vlhkost: 88%
Praha - Kbely (Praha/Kbe) 17.09.2019 02:00 UTC Zobrazit data
Místo: Praha - Kbely
Teplota: 12 °C (pocitová: 9.5 °C)
Vítr: 2 m/s z(e) 350°
Počasí: zataženo
Dohlednost: 20 km
Zákl. oblačnosti: 5/8 990 m;8/8 1230 m
Vlhkost: 88%
Praha - Libuš (Praha/Lib) 17.09.2019 02:00 UTC Zobrazit data
Místo: Praha - Libuš
Teplota: 12 °C (pocitová: 9.5 °C)
Vítr: 2 m/s z(e) 0°
Počasí: skoro zataženo
Dohlednost: 35 km
Zákl. oblačnosti: 1/8 240 m;4/8 810 m
Vlhkost: 88%
Praha - Ruzyně (Praha/Ru) 17.09.2019 02:00 UTC Zobrazit data
Místo: Praha - Ruzyně
Teplota: 11 °C (pocitová: 7.3 °C)
Vítr: 3 m/s z(e) 10°
Počasí: skoro zataženo
Dohlednost: 30 km
Zákl. oblačnosti: 1/8 180 m;3/8 600 m
Vlhkost: 88%
Přibyslav (Pribyslav) 17.09.2019 02:00 UTC Zobrazit data
Místo: Přibyslav
Teplota: 12 °C (pocitová: 6.9 °C)
Vítr: 7 m/s z(e) 340°
Počasí: zataženo
Dohlednost: 35 km
Zákl. oblačnosti: 8/8 90 m
Vlhkost: 94%
Přimda (Primda) 17.09.2019 02:00 UTC Zobrazit data
Místo: Přimda
Teplota: 11 °C (pocitová: 8.2 °C)
Vítr: 2 m/s z(e) 340°
Počasí: zataženo
Dohlednost: 35 km
Zákl. oblačnosti: 8/8 90 m
Vlhkost: 100%
Šerák (Serak) 16.09.2019 22:00 UTC Zobrazit data
Místo: Šerák
Teplota: 8 °C (pocitová: 3.3 °C)
Vítr: 3 m/s z(e) 290°
Počasí: zataženo
Dohlednost: 100 m
Zákl. oblačnosti: 8/8 30 m
Vlhkost: 100%
Svratouch (Svratouch) 17.09.2019 02:00 UTC Zobrazit data
Místo: Svratouch
Teplota: 10 °C (pocitová: 4.8 °C)
Vítr: 5 m/s z(e) 350°
Počasí: déšť
Dohlednost: 4000 m
Zákl. oblačnosti: 8/8 60 m
Vlhkost: 100%
Temelín (Temelin) 17.09.2019 02:00 UTC Zobrazit data
Místo: Temelín
Teplota: 14 °C (pocitová: 12.1 °C)
Vítr: 2 m/s z(e) 360°
Počasí: zataženo
Dohlednost: 16 km
Zákl. oblačnosti: 5/8 1200 m;8/8 2100 m
Vlhkost: 94%
Ústí nad Labem - Kočkov (Usti n/L) 17.09.2019 02:00 UTC Zobrazit data
Místo: Ústí nad Labem - Kočkov
Teplota: 11 °C (pocitová: 9.2 °C)
Vítr: 1 m/s z(e) 330°
Počasí: zataženo
Dohlednost: 35 km
Zákl. oblačnosti: 8/8 510 m
Vlhkost: 82%
Ústí nad Orlicí (Usti n/O) 17.09.2019 02:00 UTC Zobrazit data
Místo: Ústí nad Orlicí
Teplota: 13 °C (pocitová: 10.8 °C)
Vítr: 2 m/s z(e) 280°
Počasí: zataženo
Dohlednost: 5 km
Zákl. oblačnosti: 6/8 210 m;8/8 1410 m
Vlhkost: 100%
Aalborg (EKYT) 17.09.2019 01:50 UTC Zobrazit METAR
EKYT 170150Z AUTO 29014KT 9999 FEW085/// 10/05 Q1008
Aarhus (EKAH) 10.09.2019 04:50 UTC Zobrazit METAR
EKAH 100450Z 32008KT 9999 DZ OVC003 15/15 Q1008
Abu Dhabi (OMAA) 17.09.2019 02:00 UTC Zobrazit METAR
OMAA 170200Z 16006KT 140V200 CAVOK 30/26 Q1005 NOSIG
Abuja (DNAA) 17.09.2019 02:00 UTC Zobrazit METAR
DNAA 170200Z 07003KT 7000 BKN007 23/20 Q1013 NOSIG
Accra (DGAA) 17.09.2019 02:00 UTC Zobrazit METAR
DGAA 170200Z 24011KT 9999 SCT013 BKN024 26/24 Q1012 NOSIG
Addis Abeba (HAAB) 17.09.2019 01:00 UTC Zobrazit METAR
HAAB 170100Z 29004KT 9999 SCT025 BKN070 15/14 Q1024
Agana (PGUM) 17.09.2019 01:49 UTC Zobrazit METAR
PGUM 170149Z 25004KT 10SM SCT014 BKN032 BKN046 28/24 A2990 RMK AO2
Ahe Island (NTHE) Zatím nenačteno  
Akureyri (BIAR) 17.09.2019 02:00 UTC Zobrazit METAR
BIAR 170200Z 00000KT 9999 -RA SCT018 BKN029 OVC058 05/03 Q1022
Almaty (UAAA) Zatím nenačteno  
Amman (OJAM) 17.09.2019 02:00 UTC Zobrazit METAR
OJAM 170200Z 00000KT 7000 NSC 20/11 Q1015 NOSIG
Amsterdam (EHAM) 17.09.2019 01:55 UTC Zobrazit METAR
EHAM 170155Z 30003KT 9999 FEW030 10/08 Q1021 NOSIG
Antananarivo (FMMI) 17.09.2019 02:00 UTC Zobrazit METAR
FMMI 170200Z 00000KT 9999 FEW017 11/11 Q1022 NOSIG
1 2 3 ... 9 Další
Reklama

Počasí na Váš email

Emaily jsou bez reklamy a bez spamu



Odhlásit newsletter

Reklama


Lunární kalendář

  • 22.09.
  • 28.09.
  • 05.10.
  • 13.10.



Reklama


Reklama
Povinné ručení
Reklama



Reklama